createdAt,value
2023-03-26T00:03:55.309Z,95.07
2023-03-26T00:08:58.571Z,94.92
2023-03-26T00:14:02.997Z,94.90
2023-03-26T00:19:06.158Z,94.76
2023-03-26T00:24:15.578Z,94.76
2023-03-26T00:29:18.744Z,94.27
2023-03-26T00:34:23.056Z,94.42
2023-03-26T00:39:26.442Z,94.67
2023-03-26T00:44:31.055Z,94.34
2023-03-26T00:49:34.013Z,94.20
2023-03-26T00:54:37.009Z,94.08
2023-03-26T00:59:40.533Z,93.63
2023-03-26T01:04:59.420Z,93.73
2023-03-26T01:10:02.309Z,94.10
2023-03-26T01:15:08.296Z,93.83
2023-03-26T01:20:20.258Z,93.29
2023-03-26T01:25:23.219Z,93.24
2023-03-26T01:30:41.890Z,93.98
2023-03-26T01:36:00.005Z,93.54
2023-03-26T01:41:18.748Z,94.17
2023-03-26T01:46:23.051Z,94.35
2023-03-26T01:51:39.795Z,93.50
2023-03-26T01:57:03.320Z,93.77
2023-03-26T02:02:10.308Z,93.98
2023-03-26T02:07:38.045Z,93.45
2023-03-26T02:12:42.603Z,93.27
2023-03-26T02:17:47.189Z,93.25
2023-03-26T02:22:50.185Z,93.09
2023-03-26T02:27:53.163Z,93.22
2023-03-26T02:32:59.359Z,93.61
2023-03-26T02:38:02.461Z,93.58
2023-03-26T02:43:05.388Z,93.51
2023-03-26T02:48:08.314Z,93.41
2023-03-26T02:53:12.036Z,93.45
2023-03-26T02:58:17.935Z,93.47
2023-03-26T03:03:25.775Z,93.13
2023-03-26T03:08:29.609Z,93.28
2023-03-26T03:13:32.555Z,92.79
2023-03-26T03:18:35.781Z,92.75
2023-03-26T03:23:38.594Z,92.60
2023-03-26T03:28:41.988Z,92.78
2023-03-26T03:33:46.423Z,92.87
2023-03-26T03:38:50.007Z,93.44
2023-03-26T03:43:52.907Z,93.35
2023-03-26T03:48:56.102Z,93.34
2023-03-26T03:53:58.970Z,93.13
2023-03-26T03:59:03.520Z,92.70
2023-03-26T04:04:06.453Z,92.27
2023-03-26T04:09:12.096Z,92.22
2023-03-26T04:14:14.951Z,91.94
2023-03-26T04:19:17.826Z,92.15
2023-03-26T04:24:22.492Z,92.19
2023-03-26T04:29:27.992Z,91.81
2023-03-26T04:34:31.063Z,92.09
2023-03-26T04:39:34.011Z,92.76
2023-03-26T04:44:36.858Z,92.73
2023-03-26T04:49:39.928Z,92.24
2023-03-26T04:54:44.308Z,91.93
2023-03-26T04:59:47.447Z,91.70
2023-03-26T05:04:50.884Z,91.77
2023-03-26T05:09:54.143Z,91.70
2023-03-26T05:14:57.004Z,91.61
2023-03-26T05:19:59.838Z,92.09
2023-03-26T05:25:06.353Z,92.21
2023-03-26T05:30:14.453Z,92.20
2023-03-26T05:35:17.953Z,92.44
2023-03-26T05:40:22.025Z,92.17
2023-03-26T05:45:25.620Z,92.11
2023-03-26T05:50:28.499Z,92.20
2023-03-26T05:55:33.501Z,91.64
2023-03-26T06:00:38.963Z,90.48
2023-03-26T06:05:43.011Z,91.18
2023-03-26T06:10:46.007Z,90.42
2023-03-26T06:15:48.889Z,89.28
2023-03-26T06:20:52.898Z,89.45
2023-03-26T06:25:56.268Z,87.60
2023-03-26T06:31:01.130Z,86.02
2023-03-26T06:36:04.831Z,86.00
2023-03-26T06:41:07.809Z,88.10
2023-03-26T06:46:13.361Z,89.80
2023-03-26T06:51:16.730Z,89.91
2023-03-26T06:56:19.677Z,91.05
2023-03-26T07:01:23.066Z,92.18
2023-03-26T07:06:26.615Z,92.39
2023-03-26T07:11:29.693Z,93.27
2023-03-26T07:16:32.833Z,93.97
2023-03-26T07:21:36.192Z,93.81
2023-03-26T07:26:57.219Z,94.07
2023-03-26T07:32:25.767Z,94.07
2023-03-26T07:37:47.968Z,93.01
2023-03-26T07:43:11.782Z,92.78
2023-03-26T07:48:29.716Z,92.81
2023-03-26T07:53:33.106Z,90.95
2023-03-26T07:58:45.349Z,90.39
2023-03-26T08:04:24.056Z,89.64
2023-03-26T08:10:01.902Z,88.59
2023-03-26T08:15:49.988Z,88.80
2023-03-26T08:21:08.066Z,87.72
2023-03-26T08:26:22.227Z,86.55
2023-03-26T08:31:51.959Z,84.72
2023-03-26T08:36:55.030Z,85.52
2023-03-26T08:42:24.049Z,84.89
2023-03-26T08:48:03.188Z,84.68
2023-03-26T08:53:33.041Z,82.51
2023-03-26T08:59:14.413Z,82.31
2023-03-26T09:04:40.443Z,82.94
2023-03-26T09:10:14.501Z,80.70
2023-03-26T09:16:01.355Z,80.05
2023-03-26T09:21:44.544Z,81.83
2023-03-26T09:27:18.907Z,83.53
2023-03-26T09:32:59.595Z,83.25
2023-03-26T09:38:14.895Z,85.12
2023-03-26T09:43:58.899Z,84.48
2023-03-26T09:49:35.400Z,82.69
2023-03-26T09:54:57.092Z,77.92
2023-03-26T10:00:32.026Z,77.50
2023-03-26T10:06:06.928Z,76.16
2023-03-26T10:11:33.730Z,76.25
2023-03-26T10:17:03.252Z,76.36
2023-03-26T10:22:32.067Z,75.79
2023-03-26T10:28:24.865Z,72.28
2023-03-26T10:34:28.747Z,73.39
2023-03-26T10:40:14.525Z,74.68
2023-03-26T10:45:41.770Z,76.80
2023-03-26T10:51:29.200Z,75.75
2023-03-26T10:56:45.420Z,74.69
2023-03-26T11:02:06.803Z,73.09
2023-03-26T11:07:22.474Z,79.69
2023-03-26T11:12:52.856Z,80.69
2023-03-26T11:18:18.943Z,81.71
2023-03-26T11:23:36.088Z,78.42
2023-03-26T11:29:30.956Z,77.83
2023-03-26T11:34:42.019Z,74.81
2023-03-26T11:39:50.954Z,73.34
2023-03-26T11:45:00.813Z,72.47
2023-03-26T11:50:05.187Z,69.30
2023-03-26T11:55:12.640Z,65.45
2023-03-26T12:00:19.441Z,63.16
2023-03-26T12:05:26.631Z,58.91
2023-03-26T12:10:35.070Z,59.15
2023-03-26T12:15:42.912Z,57.58
2023-03-26T12:20:45.847Z,51.80
2023-03-26T12:25:48.776Z,45.25
2023-03-26T12:31:02.924Z,45.31
2023-03-26T12:36:30.405Z,51.38
2023-03-26T12:44:42.183Z,54.91
2023-03-26T12:47:55.194Z,55.83
2023-03-26T12:52:54.015Z,57.55
2023-03-26T12:58:21.906Z,58.14
2023-03-26T13:03:46.963Z,52.24
2023-03-26T13:09:12.194Z,50.24
2023-03-26T13:15:27.487Z,54.48
2023-03-26T13:21:18.762Z,59.10
2023-03-26T13:26:46.765Z,65.54
2023-03-26T13:32:17.669Z,61.77
2023-03-26T13:38:08.293Z,52.92
2023-03-26T13:43:39.861Z,49.74
2023-03-26T13:49:01.964Z,53.27
2023-03-26T13:54:37.034Z,55.56
2023-03-26T13:59:52.197Z,56.12
2023-03-26T14:05:01.364Z,57.16
2023-03-26T14:10:07.445Z,59.40
2023-03-26T14:15:32.651Z,59.74
2023-03-26T14:21:26.160Z,54.28
2023-03-26T14:27:18.588Z,50.04
2023-03-26T14:32:47.167Z,41.60
2023-03-26T14:38:22.878Z,40.59
2023-03-26T14:44:06.724Z,35.91
2023-03-26T14:49:30.778Z,32.07
2023-03-26T14:54:37.860Z,32.65
2023-03-26T15:00:21.267Z,34.16
2023-03-26T15:06:03.076Z,31.61
2023-03-26T15:11:43.361Z,30.98
2023-03-26T15:17:12.853Z,33.88
2023-03-26T15:22:59.183Z,38.28
2023-03-26T16:27:40.163Z,56.65
2023-03-26T16:39:48.240Z,58.47
2023-03-26T16:45:20.482Z,58.69
2023-03-26T17:06:21.539Z,60.05
2023-03-26T17:20:17.327Z,62.51
2023-03-26T17:25:36.789Z,63.57
2023-03-26T17:30:58.295Z,63.20
2023-03-26T17:36:21.404Z,63.88
2023-03-26T17:42:13.099Z,63.64
2023-03-26T17:47:34.180Z,64.70
2023-03-26T17:52:57.477Z,64.79
2023-03-26T17:58:50.736Z,65.26
2023-03-26T18:20:50.205Z,69.43
2023-03-26T18:26:18.737Z,70.25
2023-03-26T18:31:26.387Z,70.98
2023-03-26T18:54:55.313Z,73.70
2023-03-26T19:00:47.413Z,73.57
2023-03-26T19:25:03.020Z,75.25
2023-03-26T19:30:07.672Z,75.04
2023-03-26T19:35:21.342Z,75.08
2023-03-26T19:40:31.981Z,75.18
2023-03-26T19:45:34.805Z,75.30
2023-03-26T19:50:42.213Z,75.88
2023-03-26T19:56:16.079Z,75.82
2023-03-26T20:01:27.482Z,76.20
2023-03-26T20:06:42.528Z,75.83
2023-03-26T20:11:47.238Z,76.04
2023-03-26T20:26:54.796Z,76.77
2023-03-26T20:47:27.617Z,76.87
2023-03-26T21:00:20.194Z,77.45
2023-03-26T21:05:25.905Z,77.90
2023-03-26T21:17:39.378Z,78.35
2023-03-26T21:23:26.393Z,78.04
2023-03-26T21:47:55.782Z,78.86
2023-03-26T22:02:10.534Z,78.60
2023-03-26T22:08:27.745Z,78.96
2023-03-26T22:20:12.736Z,78.52
2023-03-26T22:39:33.927Z,80.05
2023-03-26T22:44:37.275Z,80.18
2023-03-26T22:49:55.578Z,80.34
2023-03-26T23:01:10.771Z,80.60
2023-03-26T23:06:13.770Z,80.18
2023-03-26T23:11:18.751Z,81.30
2023-03-26T23:16:21.958Z,81.48
2023-03-26T23:21:25.723Z,81.27
2023-03-26T23:26:35.006Z,81.45
2023-03-26T23:31:42.491Z,81.79
2023-03-26T23:36:45.532Z,82.24
2023-03-26T23:41:48.500Z,82.35
2023-03-26T23:46:58.043Z,82.02
2023-03-26T23:52:01.031Z,82.25
2023-03-26T23:57:06.725Z,82.62
